createdAt,value
2017-01-28T00:00:00.302Z,73435
2017-01-28T00:00:10.835Z,73429
2017-01-28T00:00:20.232Z,73435
2017-01-28T00:00:30.760Z,73429
2017-01-28T00:00:40.540Z,73435
2017-01-28T00:00:51.073Z,73434
2017-01-28T00:01:01.584Z,73434
2017-01-28T00:01:12.103Z,73434
2017-01-28T00:01:22.623Z,73436
2017-01-28T00:01:33.132Z,73432
2017-01-28T00:01:42.903Z,73432
2017-01-28T00:01:53.413Z,73434
2017-01-28T00:02:03.924Z,73434
2017-01-28T00:02:14.454Z,73432
2017-01-28T00:02:25.015Z,73435
2017-01-28T00:02:35.552Z,73433
2017-01-28T00:02:45.698Z,73429
2017-01-28T00:02:56.258Z,73433
2017-01-28T00:03:06.804Z,73433
2017-01-28T00:03:17.323Z,73434
2017-01-28T00:03:27.894Z,73434
2017-01-28T00:03:38.422Z,73437
2017-01-28T00:03:48.581Z,73439
2017-01-28T00:03:59.093Z,73440
2017-01-28T00:04:09.644Z,73440
2017-01-28T00:04:20.179Z,73440
2017-01-28T00:04:30.709Z,73436
2017-01-28T00:04:41.249Z,73437
2017-01-28T00:04:51.777Z,73437
2017-01-28T00:05:02.310Z,73440
2017-01-28T00:05:12.844Z,73441
2017-01-28T00:05:23.381Z,73441
2017-01-28T00:05:33.891Z,73442
2017-01-28T00:05:43.663Z,73444
2017-01-28T00:05:54.183Z,73444
2017-01-28T00:06:04.695Z,73442
2017-01-28T00:06:15.204Z,73440
2017-01-28T00:06:25.716Z,73447
2017-01-28T00:06:36.234Z,73439
2017-01-28T00:06:46.744Z,73442
2017-01-28T00:06:56.915Z,73438
2017-01-28T00:07:07.439Z,73439
2017-01-28T00:07:17.611Z,73432
2017-01-28T00:07:28.137Z,73438
2017-01-28T00:07:38.288Z,73438
2017-01-28T00:07:48.818Z,73437
2017-01-28T00:07:58.984Z,73435
2017-01-28T00:08:09.519Z,73441
2017-01-28T00:08:19.321Z,73440
2017-01-28T00:08:29.836Z,73440
2017-01-28T00:08:40.354Z,73437
2017-01-28T00:08:50.880Z,73442
2017-01-28T00:09:01.051Z,73444
2017-01-28T00:09:11.193Z,73439
2017-01-28T00:09:21.342Z,73442
2017-01-28T00:09:31.881Z,73437
2017-01-28T00:09:42.417Z,73438
2017-01-28T00:09:52.951Z,73446
2017-01-28T00:10:03.118Z,73438
2017-01-28T00:10:13.648Z,73439
2017-01-28T00:10:24.151Z,73439
2017-01-28T00:10:34.689Z,73437
2017-01-28T00:10:45.202Z,73437
2017-01-28T00:10:55.721Z,73437
2017-01-28T00:11:05.880Z,73440
2017-01-28T00:11:16.039Z,73438
2017-01-28T00:11:26.226Z,73435
2017-01-28T00:11:36.724Z,73440
2017-01-28T00:11:47.263Z,73440
2017-01-28T00:11:57.783Z,73437
2017-01-28T00:12:08.298Z,73438
2017-01-28T00:12:17.732Z,73441
2017-01-28T00:12:28.279Z,73439
2017-01-28T00:12:38.805Z,73438
2017-01-28T00:12:49.337Z,73439
2017-01-28T00:12:59.846Z,73437
2017-01-28T00:13:10.365Z,73441
2017-01-28T00:13:20.942Z,73434
2017-01-28T00:13:31.147Z,73437
2017-01-28T00:13:41.673Z,73434
2017-01-28T00:13:52.187Z,73435
2017-01-28T00:14:02.728Z,73433
2017-01-28T00:14:12.524Z,73433
2017-01-28T00:14:22.678Z,73435
2017-01-28T00:14:33.209Z,73437
2017-01-28T00:14:43.760Z,73436
2017-01-28T00:14:54.303Z,73433
2017-01-28T00:15:04.835Z,73433
2017-01-28T00:15:15.355Z,73432
2017-01-28T00:15:25.887Z,73432
2017-01-28T00:15:36.409Z,73435
2017-01-28T00:15:46.572Z,73437
2017-01-28T00:15:57.087Z,73432
2017-01-28T00:16:07.260Z,73431
2017-01-28T00:16:17.764Z,73430
2017-01-28T00:16:27.917Z,73434
2017-01-28T00:16:38.129Z,73430
2017-01-28T00:16:48.671Z,73430
2017-01-28T00:16:59.198Z,73433
2017-01-28T00:17:09.384Z,73433
2017-01-28T00:17:19.585Z,73429
2017-01-28T00:17:30.106Z,73432
2017-01-28T00:17:40.624Z,73433
2017-01-28T00:17:51.155Z,73432
2017-01-28T00:18:01.681Z,73429
2017-01-28T00:18:11.856Z,73430
2017-01-28T00:18:22.007Z,73426
2017-01-28T00:18:32.538Z,73422
2017-01-28T00:18:42.701Z,73425
2017-01-28T00:18:53.215Z,73421
2017-01-28T00:19:03.752Z,73421
2017-01-28T00:19:13.907Z,73424
2017-01-28T00:19:24.076Z,73425
2017-01-28T00:19:34.601Z,73424
2017-01-28T00:19:45.128Z,73424
2017-01-28T00:19:55.285Z,73424
2017-01-28T00:20:05.808Z,73427
2017-01-28T00:20:15.589Z,73427
2017-01-28T00:20:26.098Z,73430
2017-01-28T00:20:36.620Z,73429
2017-01-28T00:20:46.752Z,73428
2017-01-28T00:20:57.281Z,73428
2017-01-28T00:21:07.822Z,73430
2017-01-28T00:21:17.974Z,73430
2017-01-28T00:21:28.502Z,73430
2017-01-28T00:21:39.031Z,73427
2017-01-28T00:21:49.166Z,73427
2017-01-28T00:21:59.687Z,73429
2017-01-28T00:22:09.829Z,73431
2017-01-28T00:22:20.368Z,73426
2017-01-28T00:22:30.894Z,73425
2017-01-28T00:22:41.413Z,73424
2017-01-28T00:22:51.946Z,73427
2017-01-28T00:23:02.457Z,73429
2017-01-28T00:23:12.620Z,73428
2017-01-28T00:23:22.778Z,73426
2017-01-28T00:23:33.315Z,73426
2017-01-28T00:23:43.844Z,73430
2017-01-28T00:23:53.987Z,73424
2017-01-28T00:24:04.529Z,73428
2017-01-28T00:24:14.672Z,73431
2017-01-28T00:24:25.192Z,73432
2017-01-28T00:24:35.707Z,73430
2017-01-28T00:24:45.859Z,73433
2017-01-28T00:24:56.364Z,73433
2017-01-28T00:25:06.917Z,73434
2017-01-28T00:25:17.084Z,73434
2017-01-28T00:25:27.609Z,73437
2017-01-28T00:25:38.151Z,73435
2017-01-28T00:25:48.703Z,73434
2017-01-28T00:25:59.221Z,73436
2017-01-28T00:26:09.761Z,73436
2017-01-28T00:26:20.279Z,73437
2017-01-28T00:26:30.837Z,73434
2017-01-28T00:26:41.357Z,73437
2017-01-28T00:26:51.901Z,73436
2017-01-28T00:27:02.415Z,73432
2017-01-28T00:27:12.948Z,73433
2017-01-28T00:27:23.475Z,73430
2017-01-28T00:27:33.986Z,73435
2017-01-28T00:27:44.500Z,73435
2017-01-28T00:27:55.027Z,73433
2017-01-28T00:28:05.523Z,73435
2017-01-28T00:28:16.043Z,73432
2017-01-28T00:28:26.543Z,73433
2017-01-28T00:28:37.075Z,73429
2017-01-28T00:28:47.591Z,73431
2017-01-28T00:28:58.114Z,73435
2017-01-28T00:29:08.677Z,73432
2017-01-28T00:29:18.111Z,73436
2017-01-28T00:29:28.257Z,73431
2017-01-28T00:29:38.777Z,73434
2017-01-28T00:29:49.289Z,73429
2017-01-28T00:29:59.836Z,73430
2017-01-28T00:30:09.637Z,73430
2017-01-28T00:30:19.793Z,73434
2017-01-28T00:30:30.320Z,73433
2017-01-28T00:30:40.850Z,73428
2017-01-28T00:30:51.383Z,73430
2017-01-28T00:31:01.900Z,73435
2017-01-28T00:31:12.064Z,73427
2017-01-28T00:31:22.600Z,73432
2017-01-28T00:31:33.127Z,73426
2017-01-28T00:31:43.662Z,73429
2017-01-28T00:31:54.193Z,73430
2017-01-28T00:32:04.723Z,73431
2017-01-28T00:32:14.888Z,73432
2017-01-28T00:32:25.434Z,73427
2017-01-28T00:32:36.004Z,73427
2017-01-28T00:32:46.528Z,73429
2017-01-28T00:32:56.663Z,73427
2017-01-28T00:33:07.194Z,73428
2017-01-28T00:33:17.727Z,73428
2017-01-28T00:33:28.261Z,73428
2017-01-28T00:33:38.799Z,73422
2017-01-28T00:33:48.930Z,73428
2017-01-28T00:33:59.106Z,73427
2017-01-28T00:34:09.265Z,73426
2017-01-28T00:34:19.784Z,73429
2017-01-28T00:34:30.306Z,73431
2017-01-28T00:34:40.832Z,73427
2017-01-28T00:34:51.374Z,73432
2017-01-28T00:35:01.562Z,73429
2017-01-28T00:35:12.100Z,73430
2017-01-28T00:35:22.644Z,73428
2017-01-28T00:35:33.157Z,73429
2017-01-28T00:35:43.674Z,73424
2017-01-28T00:35:54.201Z,73424
2017-01-28T00:36:04.730Z,73426
2017-01-28T00:36:14.866Z,73426
2017-01-28T00:36:25.386Z,73425
2017-01-28T00:36:35.904Z,73426
2017-01-28T00:36:46.438Z,73425
2017-01-28T00:36:56.954Z,73422
2017-01-28T00:37:07.109Z,73424
2017-01-28T00:37:16.880Z,73423
2017-01-28T00:37:27.038Z,73423
2017-01-28T00:37:37.189Z,73426
2017-01-28T00:37:47.338Z,73427
2017-01-28T00:37:57.850Z,73424
2017-01-28T00:38:08.008Z,73426
2017-01-28T00:38:17.765Z,73423
2017-01-28T00:38:27.937Z,73426
2017-01-28T00:38:38.484Z,73423
2017-01-28T00:38:49.003Z,73425
2017-01-28T00:38:59.533Z,73422
2017-01-28T00:39:10.071Z,73423
2017-01-28T00:39:20.213Z,73423
2017-01-28T00:39:30.737Z,73424
2017-01-28T00:39:41.271Z,73431
2017-01-28T00:39:51.781Z,73425
2017-01-28T00:40:02.294Z,73428
2017-01-28T00:40:12.476Z,73429
2017-01-28T00:40:23.007Z,73430
2017-01-28T00:40:33.149Z,73427
2017-01-28T00:40:43.677Z,73429
2017-01-28T00:40:54.211Z,73429
2017-01-28T00:41:04.712Z,73430
2017-01-28T00:41:15.250Z,73427
2017-01-28T00:41:25.805Z,73430
2017-01-28T00:41:36.317Z,73426
2017-01-28T00:41:46.845Z,73427
2017-01-28T00:41:57.378Z,73427
2017-01-28T00:42:07.901Z,73429
2017-01-28T00:42:18.068Z,73423
2017-01-28T00:42:28.598Z,73427
2017-01-28T00:42:38.730Z,73427
2017-01-28T00:42:49.253Z,73423
2017-01-28T00:42:59.793Z,73427
2017-01-28T00:43:10.319Z,73424
2017-01-28T00:43:20.462Z,73424
2017-01-28T00:43:30.593Z,73430
2017-01-28T00:43:40.744Z,73425
2017-01-28T00:43:51.289Z,73428
2017-01-28T00:44:01.798Z,73426
2017-01-28T00:44:11.577Z,73430
2017-01-28T00:44:21.758Z,73428
2017-01-28T00:44:32.285Z,73429
2017-01-28T00:44:42.824Z,73425
2017-01-28T00:44:53.362Z,73427
2017-01-28T00:45:03.885Z,73428
2017-01-28T00:45:14.059Z,73428
2017-01-28T00:45:24.597Z,73426
2017-01-28T00:45:35.108Z,73426
2017-01-28T00:45:45.281Z,73426
2017-01-28T00:45:55.812Z,73424
2017-01-28T00:46:06.328Z,73425
2017-01-28T00:46:16.880Z,73426
2017-01-28T00:46:27.394Z,73423
2017-01-28T00:46:37.927Z,73425
2017-01-28T00:46:48.432Z,73424
2017-01-28T00:46:58.965Z,73426
2017-01-28T00:47:09.492Z,73425
2017-01-28T00:47:19.652Z,73424
2017-01-28T00:47:30.181Z,73423
2017-01-28T00:47:40.704Z,73418
2017-01-28T00:47:51.224Z,73423
2017-01-28T00:48:01.372Z,73422
2017-01-28T00:48:11.894Z,73423
2017-01-28T00:48:22.071Z,73424
2017-01-28T00:48:32.610Z,73425
2017-01-28T00:48:43.133Z,73422
2017-01-28T00:48:53.648Z,73424
2017-01-28T00:49:04.184Z,73421
2017-01-28T00:49:14.335Z,73424
2017-01-28T00:49:24.903Z,73423
2017-01-28T00:49:35.416Z,73423
2017-01-28T00:49:45.588Z,73424
2017-01-28T00:49:56.116Z,73422
2017-01-28T00:50:06.257Z,73422
2017-01-28T00:50:16.040Z,73420
2017-01-28T00:50:26.570Z,73423
2017-01-28T00:50:37.125Z,73419
2017-01-28T00:50:47.273Z,73424
2017-01-28T00:50:57.816Z,73420
2017-01-28T00:51:08.343Z,73422
2017-01-28T00:51:18.489Z,73419
2017-01-28T00:51:28.646Z,73422
2017-01-28T00:51:39.186Z,73420
2017-01-28T00:51:49.717Z,73420
2017-01-28T00:52:00.232Z,73424
2017-01-28T00:52:10.764Z,73424
2017-01-28T00:52:21.297Z,73418
2017-01-28T00:52:31.805Z,73420
2017-01-28T00:52:42.323Z,73423
2017-01-28T00:52:52.842Z,73421
2017-01-28T00:53:03.371Z,73421
2017-01-28T00:53:13.559Z,73422
2017-01-28T00:53:24.075Z,73422
2017-01-28T00:53:34.598Z,73420
2017-01-28T00:53:45.166Z,73417
2017-01-28T00:53:55.691Z,73415
2017-01-28T00:54:05.481Z,73421
2017-01-28T00:54:15.642Z,73420
2017-01-28T00:54:26.183Z,73422
2017-01-28T00:54:36.718Z,73421
2017-01-28T00:54:47.243Z,73424
2017-01-28T00:54:57.395Z,73423
2017-01-28T00:55:07.918Z,73421
2017-01-28T00:55:17.325Z,73421
2017-01-28T00:55:27.494Z,73425
2017-01-28T00:55:38.019Z,73422
2017-01-28T00:55:48.171Z,73419
2017-01-28T00:55:58.682Z,73421
2017-01-28T00:56:08.842Z,73421
2017-01-28T00:56:19.363Z,73420
2017-01-28T00:56:29.929Z,73416
2017-01-28T00:56:40.438Z,73418
2017-01-28T00:56:50.945Z,73416
2017-01-28T00:57:01.110Z,73415
2017-01-28T00:57:11.264Z,73418
2017-01-28T00:57:21.800Z,73415
2017-01-28T00:57:31.972Z,73418
2017-01-28T00:57:42.499Z,73418
2017-01-28T00:57:52.638Z,73418
2017-01-28T00:58:03.160Z,73417
2017-01-28T00:58:13.308Z,73415
2017-01-28T00:58:23.812Z,73424
2017-01-28T00:58:34.339Z,73418
2017-01-28T00:58:44.876Z,73421
2017-01-28T00:58:55.421Z,73421
2017-01-28T00:59:05.971Z,73418
2017-01-28T00:59:16.493Z,73418
2017-01-28T00:59:26.655Z,73415
2017-01-28T00:59:37.190Z,73417
2017-01-28T00:59:46.971Z,73421
2017-01-28T00:59:57.100Z,73420
2017-01-28T01:00:07.656Z,73419
2017-01-28T01:00:17.450Z,73420
2017-01-28T01:00:27.970Z,73421
2017-01-28T01:00:38.539Z,73421
2017-01-28T01:00:49.064Z,73423
2017-01-28T01:00:59.591Z,73416
2017-01-28T01:01:09.763Z,73417
2017-01-28T01:01:20.286Z,73415
2017-01-28T01:01:30.462Z,73418
2017-01-28T01:01:40.994Z,73418
2017-01-28T01:01:51.197Z,73414
2017-01-28T01:02:01.712Z,73414
2017-01-28T01:02:11.496Z,73418
2017-01-28T01:02:22.027Z,73418
2017-01-28T01:02:32.553Z,73419
2017-01-28T01:02:43.098Z,73413
2017-01-28T01:02:53.649Z,73418
2017-01-28T01:03:04.167Z,73414
2017-01-28T01:03:13.956Z,73418
2017-01-28T01:03:24.485Z,73418
2017-01-28T01:03:35.005Z,73414
2017-01-28T01:03:45.134Z,73414
2017-01-28T01:03:55.646Z,73417
2017-01-28T01:04:05.783Z,73413
2017-01-28T01:04:16.295Z,73417
2017-01-28T01:04:26.444Z,73411
2017-01-28T01:04:36.652Z,73413
2017-01-28T01:04:47.194Z,73412
2017-01-28T01:04:57.723Z,73415
2017-01-28T01:05:08.231Z,73415
2017-01-28T01:05:18.389Z,73417
2017-01-28T01:05:28.918Z,73416
2017-01-28T01:05:39.440Z,73417
2017-01-28T01:05:49.591Z,73417
2017-01-28T01:05:59.760Z,73414
2017-01-28T01:06:10.275Z,73419
2017-01-28T01:06:20.794Z,73416
2017-01-28T01:06:31.312Z,73419
2017-01-28T01:06:41.842Z,73417
2017-01-28T01:06:52.379Z,73417
2017-01-28T01:07:02.895Z,73415
2017-01-28T01:07:13.046Z,73417
2017-01-28T01:07:23.572Z,73417
2017-01-28T01:07:34.105Z,73415
2017-01-28T01:07:43.887Z,73416
2017-01-28T01:07:54.044Z,73413
2017-01-28T01:08:04.545Z,73416
2017-01-28T01:08:14.699Z,73417
2017-01-28T01:08:25.224Z,73417
2017-01-28T01:08:35.742Z,73415
2017-01-28T01:08:46.272Z,73418
2017-01-28T01:08:56.798Z,73413
2017-01-28T01:09:07.314Z,73417
2017-01-28T01:09:17.481Z,73419
2017-01-28T01:09:27.985Z,73413
2017-01-28T01:09:38.525Z,73421
2017-01-28T01:09:48.693Z,73419
2017-01-28T01:09:59.228Z,73419
2017-01-28T01:10:09.786Z,73420
2017-01-28T01:10:20.328Z,73418
2017-01-28T01:10:30.889Z,73416
2017-01-28T01:10:41.404Z,73419
2017-01-28T01:10:51.925Z,73416
2017-01-28T01:11:02.432Z,73419
2017-01-28T01:11:12.582Z,73416
2017-01-28T01:11:23.135Z,73417
2017-01-28T01:11:33.670Z,73417
2017-01-28T01:11:43.834Z,73417
2017-01-28T01:11:54.348Z,73418
2017-01-28T01:12:04.860Z,73415
2017-01-28T01:12:15.386Z,73417
2017-01-28T01:12:25.895Z,73417
2017-01-28T01:12:36.443Z,73418
2017-01-28T01:12:46.964Z,73421
2017-01-28T01:12:57.487Z,73416
2017-01-28T01:13:08.013Z,73417
2017-01-28T01:13:18.539Z,73414
2017-01-28T01:13:29.083Z,73417
2017-01-28T01:13:39.613Z,73417
2017-01-28T01:13:49.762Z,73413
2017-01-28T01:14:00.306Z,73415
2017-01-28T01:14:10.830Z,73419
2017-01-28T01:14:21.364Z,73416
2017-01-28T01:14:31.904Z,73415
2017-01-28T01:14:42.443Z,73415
2017-01-28T01:14:52.965Z,73415
2017-01-28T01:15:03.492Z,73419
2017-01-28T01:15:13.661Z,73417
2017-01-28T01:15:24.194Z,73415
2017-01-28T01:15:34.712Z,73416
2017-01-28T01:15:44.875Z,73414
2017-01-28T01:15:55.014Z,73414
2017-01-28T01:16:05.549Z,73412
2017-01-28T01:16:15.700Z,73417
2017-01-28T01:16:26.224Z,73413
2017-01-28T01:16:36.795Z,73412
2017-01-28T01:16:47.333Z,73417
2017-01-28T01:16:57.117Z,73412
2017-01-28T01:17:07.645Z,73412
2017-01-28T01:17:18.199Z,73416
2017-01-28T01:17:28.729Z,73418
2017-01-28T01:17:39.254Z,73415
2017-01-28T01:17:49.424Z,73416
2017-01-28T01:17:59.954Z,73417
2017-01-28T01:18:09.759Z,73412
2017-01-28T01:18:20.276Z,73416
2017-01-28T01:18:30.819Z,73412
2017-01-28T01:18:40.987Z,73419
2017-01-28T01:18:51.139Z,73411
2017-01-28T01:19:01.680Z,73413
2017-01-28T01:19:11.812Z,73415
2017-01-28T01:19:22.324Z,73416
2017-01-28T01:19:32.837Z,73419
2017-01-28T01:19:42.640Z,73415
2017-01-28T01:19:53.220Z,73417
2017-01-28T01:20:03.757Z,73414
2017-01-28T01:20:13.543Z,73416
2017-01-28T01:20:24.069Z,73416
2017-01-28T01:20:34.600Z,73415
2017-01-28T01:20:44.744Z,73418
2017-01-28T01:20:55.259Z,73415
2017-01-28T01:21:05.785Z,73415
2017-01-28T01:21:16.305Z,73417
2017-01-28T01:21:26.840Z,73415
2017-01-28T01:21:37.359Z,73416
2017-01-28T01:21:47.877Z,73418
2017-01-28T01:21:58.403Z,73415
2017-01-28T01:22:08.937Z,73414
2017-01-28T01:22:19.118Z,73417
2017-01-28T01:22:29.662Z,73418
2017-01-28T01:22:39.438Z,73412
2017-01-28T01:22:49.985Z,73420
2017-01-28T01:23:00.525Z,73418
2017-01-28T01:23:11.067Z,73415
2017-01-28T01:23:21.600Z,73417
2017-01-28T01:23:32.110Z,73414
2017-01-28T01:23:42.293Z,73417
2017-01-28T01:23:52.839Z,73422
2017-01-28T01:24:03.012Z,73412
2017-01-28T01:24:13.537Z,73422
2017-01-28T01:24:24.064Z,73414
2017-01-28T01:24:34.592Z,73423
2017-01-28T01:24:45.127Z,73413
2017-01-28T01:24:55.642Z,73421
2017-01-28T01:25:06.170Z,73421
2017-01-28T01:25:16.712Z,73422
2017-01-28T01:25:27.264Z,73419
2017-01-28T01:25:37.423Z,73420
2017-01-28T01:25:47.940Z,73419
2017-01-28T01:25:58.092Z,73421
2017-01-28T01:26:08.270Z,73422
2017-01-28T01:26:18.784Z,73422
2017-01-28T01:26:29.299Z,73423
2017-01-28T01:26:39.845Z,73424
2017-01-28T01:26:50.383Z,73423
2017-01-28T01:27:00.917Z,73425
2017-01-28T01:27:11.116Z,73423
2017-01-28T01:27:21.277Z,73421
2017-01-28T01:27:31.799Z,73423
2017-01-28T01:27:41.958Z,73419
2017-01-28T01:27:52.497Z,73424
2017-01-28T01:28:03.052Z,73420
2017-01-28T01:28:13.595Z,73418
2017-01-28T01:28:24.120Z,73420
2017-01-28T01:28:34.649Z,73422
2017-01-28T01:28:45.182Z,73421
2017-01-28T01:28:55.715Z,73421
2017-01-28T01:29:06.232Z,73424
2017-01-28T01:29:16.754Z,73421
2017-01-28T01:29:27.300Z,73422
2017-01-28T01:29:37.842Z,73423
2017-01-28T01:29:48.361Z,73422
2017-01-28T01:29:58.857Z,73419
2017-01-28T01:30:08.657Z,73422
2017-01-28T01:30:19.183Z,73423
2017-01-28T01:30:29.721Z,73420
2017-01-28T01:30:39.888Z,73417
2017-01-28T01:30:50.427Z,73425
2017-01-28T01:31:00.947Z,73418
2017-01-28T01:31:11.457Z,73422
2017-01-28T01:31:21.985Z,73420
2017-01-28T01:31:32.590Z,73422
2017-01-28T01:31:43.090Z,73420
2017-01-28T01:31:53.653Z,73417
2017-01-28T01:32:03.814Z,73421
2017-01-28T01:32:14.341Z,73420
2017-01-28T01:32:24.884Z,73419
2017-01-28T01:32:35.420Z,73421
2017-01-28T01:32:45.936Z,73421
2017-01-28T01:32:56.083Z,73417
2017-01-28T01:33:06.233Z,73419
2017-01-28T01:33:16.375Z,73420
2017-01-28T01:33:26.907Z,73416
2017-01-28T01:33:37.466Z,73422
2017-01-28T01:33:47.987Z,73421
2017-01-28T01:33:58.144Z,73415
2017-01-28T01:34:08.687Z,73421
2017-01-28T01:34:19.196Z,73417
2017-01-28T01:34:29.716Z,73418
2017-01-28T01:34:40.235Z,73414
2017-01-28T01:34:50.773Z,73419
2017-01-28T01:35:01.302Z,73417
2017-01-28T01:35:11.443Z,73418
2017-01-28T01:35:21.947Z,73413
2017-01-28T01:35:32.477Z,73417
2017-01-28T01:35:42.979Z,73419
2017-01-28T01:35:53.514Z,73417
2017-01-28T01:36:04.040Z,73417
2017-01-28T01:36:14.186Z,73415
2017-01-28T01:36:24.716Z,73418
2017-01-28T01:36:35.246Z,73420
2017-01-28T01:36:45.773Z,73417
2017-01-28T01:36:56.304Z,73418
2017-01-28T01:37:06.840Z,73419
2017-01-28T01:37:17.356Z,73417
2017-01-28T01:37:27.874Z,73417
2017-01-28T01:37:38.482Z,73417
2017-01-28T01:37:48.998Z,73416
2017-01-28T01:37:59.516Z,73417
2017-01-28T01:38:09.676Z,73417
2017-01-28T01:38:19.850Z,73419
2017-01-28T01:38:30.377Z,73417
2017-01-28T01:38:40.882Z,73420
2017-01-28T01:38:51.401Z,73417
2017-01-28T01:39:01.917Z,73416
2017-01-28T01:39:12.080Z,73419
2017-01-28T01:39:22.607Z,73420
2017-01-28T01:39:33.135Z,73420
2017-01-28T01:39:43.709Z,73419
2017-01-28T01:39:53.890Z,73421
2017-01-28T01:40:04.449Z,73420
2017-01-28T01:40:14.983Z,73423
2017-01-28T01:40:25.511Z,73418
2017-01-28T01:40:36.032Z,73419
2017-01-28T01:40:46.557Z,73421
2017-01-28T01:40:57.123Z,73419
2017-01-28T01:41:07.638Z,73421
2017-01-28T01:41:18.220Z,73421
2017-01-28T01:41:28.741Z,73419
2017-01-28T01:41:39.290Z,73418
2017-01-28T01:41:49.828Z,73421
2017-01-28T01:42:00.357Z,73421
2017-01-28T01:42:10.918Z,73416
2017-01-28T01:42:20.692Z,73420
2017-01-28T01:42:31.216Z,73418
2017-01-28T01:42:41.735Z,73420
2017-01-28T01:42:52.275Z,73419
2017-01-28T01:43:02.824Z,73420
2017-01-28T01:43:13.380Z,73421
2017-01-28T01:43:23.563Z,73422
2017-01-28T01:43:34.074Z,73419
2017-01-28T01:43:44.624Z,73422
2017-01-28T01:43:55.164Z,73422
2017-01-28T01:44:05.714Z,73423
2017-01-28T01:44:15.870Z,73418
2017-01-28T01:44:26.032Z,73424
2017-01-28T01:44:36.189Z,73419
2017-01-28T01:44:46.764Z,73424
2017-01-28T01:44:57.299Z,73422
2017-01-28T01:45:07.814Z,73421
2017-01-28T01:45:17.951Z,73424
2017-01-28T01:45:28.471Z,73423
2017-01-28T01:45:39.013Z,73425
2017-01-28T01:45:49.542Z,73422
2017-01-28T01:46:00.052Z,73426
2017-01-28T01:46:10.207Z,73424
2017-01-28T01:46:20.739Z,73426
2017-01-28T01:46:31.256Z,73426
2017-01-28T01:46:41.412Z,73423
2017-01-28T01:46:51.585Z,73423
2017-01-28T01:47:02.128Z,73424
2017-01-28T01:47:12.642Z,73422
2017-01-28T01:47:22.792Z,73424
2017-01-28T01:47:33.302Z,73424
2017-01-28T01:47:43.835Z,73425
2017-01-28T01:47:54.354Z,73419
2017-01-28T01:48:04.874Z,73421
2017-01-28T01:48:15.023Z,73423
2017-01-28T01:48:25.546Z,73425
2017-01-28T01:48:36.064Z,73421
2017-01-28T01:48:46.620Z,73420
2017-01-28T01:48:57.162Z,73423
2017-01-28T01:49:07.322Z,73420
2017-01-28T01:49:17.107Z,73426
2017-01-28T01:49:27.632Z,73422
2017-01-28T01:49:38.175Z,73425
2017-01-28T01:49:48.695Z,73423
2017-01-28T01:49:59.238Z,73423
2017-01-28T01:50:09.767Z,73422
2017-01-28T01:50:19.921Z,73421
2017-01-28T01:50:30.482Z,73421
2017-01-28T01:50:40.641Z,73420
2017-01-28T01:50:50.810Z,73419
2017-01-28T01:51:00.991Z,73421
2017-01-28T01:51:11.528Z,73421
2017-01-28T01:51:21.644Z,73423
2017-01-28T01:51:32.172Z,73419
2017-01-28T01:51:42.718Z,73421
2017-01-28T01:51:53.255Z,73419
2017-01-28T01:52:03.763Z,73419
2017-01-28T01:52:13.913Z,73421
2017-01-28T01:52:24.448Z,73421
2017-01-28T01:52:34.955Z,73423
2017-01-28T01:52:45.125Z,73423
2017-01-28T01:52:55.671Z,73418
2017-01-28T01:53:05.843Z,73424
2017-01-28T01:53:15.981Z,73419
2017-01-28T01:53:26.488Z,73423
2017-01-28T01:53:36.634Z,73419
2017-01-28T01:53:46.792Z,73425
2017-01-28T01:53:57.321Z,73422
2017-01-28T01:54:07.460Z,73423
2017-01-28T01:54:17.617Z,73421
2017-01-28T01:54:28.151Z,73421
2017-01-28T01:54:38.696Z,73422
2017-01-28T01:54:48.844Z,73419
2017-01-28T01:54:58.994Z,73423
2017-01-28T01:55:08.767Z,73420
2017-01-28T01:55:18.562Z,73426
2017-01-28T01:55:29.085Z,73418
2017-01-28T01:55:39.264Z,73423
2017-01-28T01:55:49.784Z,73418
2017-01-28T01:56:00.299Z,73419
2017-01-28T01:56:10.847Z,73420
2017-01-28T01:56:21.376Z,73418
2017-01-28T01:56:31.518Z,73417
2017-01-28T01:56:42.031Z,73415
2017-01-28T01:56:52.556Z,73419
2017-01-28T01:57:03.064Z,73418
2017-01-28T01:57:13.593Z,73415
2017-01-28T01:57:24.123Z,73419
2017-01-28T01:57:34.643Z,73416
2017-01-28T01:57:44.420Z,73414
2017-01-28T01:57:54.950Z,73416
2017-01-28T01:58:05.496Z,73416
2017-01-28T01:58:16.039Z,73416
2017-01-28T01:58:26.179Z,73418
2017-01-28T01:58:36.377Z,73419
2017-01-28T01:58:46.913Z,73423
2017-01-28T01:58:57.418Z,73420
2017-01-28T01:59:07.922Z,73423
2017-01-28T01:59:18.078Z,73422
2017-01-28T01:59:28.625Z,73419
2017-01-28T01:59:39.131Z,73422
2017-01-28T01:59:49.639Z,73418
2017-01-28T02:00:00.179Z,73423
2017-01-28T02:00:10.721Z,73421
2017-01-28T02:00:20.869Z,73419
2017-01-28T02:00:31.399Z,73417
2017-01-28T02:00:41.942Z,73422
2017-01-28T02:00:52.478Z,73425
2017-01-28T02:01:02.998Z,73419
2017-01-28T02:01:13.535Z,73424
2017-01-28T02:01:23.678Z,73423
2017-01-28T02:01:34.231Z,73418
2017-01-28T02:01:44.742Z,73425
2017-01-28T02:01:55.274Z,73421
2017-01-28T02:02:05.429Z,73418
2017-01-28T02:02:15.949Z,73422
2017-01-28T02:02:26.481Z,73418
2017-01-28T02:02:37.006Z,73421
2017-01-28T02:02:47.154Z,73419
2017-01-28T02:02:57.694Z,73420
2017-01-28T02:03:08.203Z,73421
2017-01-28T02:03:18.741Z,73419
2017-01-28T02:03:29.252Z,73416
2017-01-28T02:03:39.788Z,73419
2017-01-28T02:03:50.326Z,73420
2017-01-28T02:04:00.846Z,73419
2017-01-28T02:04:10.659Z,73423
2017-01-28T02:04:20.814Z,73421
2017-01-28T02:04:31.356Z,73420
2017-01-28T02:04:41.898Z,73422
2017-01-28T02:04:52.421Z,73420
2017-01-28T02:05:02.932Z,73424
2017-01-28T02:05:12.365Z,73422
2017-01-28T02:05:22.875Z,73419
2017-01-28T02:05:33.023Z,73426
2017-01-28T02:05:42.820Z,73420
2017-01-28T02:05:52.971Z,73422
2017-01-28T02:06:03.522Z,73422
2017-01-28T02:06:13.698Z,73421
2017-01-28T02:06:24.228Z,73419
2017-01-28T02:06:34.368Z,73423
2017-01-28T02:06:44.516Z,73421
2017-01-28T02:06:55.042Z,73423
2017-01-28T02:07:05.594Z,73416
2017-01-28T02:07:15.402Z,73421
2017-01-28T02:07:25.920Z,73418
2017-01-28T02:07:36.443Z,73420
2017-01-28T02:07:46.977Z,73416
2017-01-28T02:07:57.499Z,73420
2017-01-28T02:08:08.023Z,73417
2017-01-28T02:08:18.581Z,73422
2017-01-28T02:08:29.130Z,73421
2017-01-28T02:08:39.663Z,73421
2017-01-28T02:08:50.183Z,73422
2017-01-28T02:09:00.687Z,73417
2017-01-28T02:09:11.200Z,73423
2017-01-28T02:09:21.350Z,73418
2017-01-28T02:09:31.879Z,73426
2017-01-28T02:09:41.666Z,73421
2017-01-28T02:09:52.210Z,73427
2017-01-28T02:10:02.725Z,73426
2017-01-28T02:10:12.871Z,73425
2017-01-28T02:10:23.069Z,73422
2017-01-28T02:10:33.584Z,73420
2017-01-28T02:10:43.751Z,73425
2017-01-28T02:10:53.917Z,73425
2017-01-28T02:11:04.444Z,73425
2017-01-28T02:11:14.983Z,73422
2017-01-28T02:11:25.126Z,73424
2017-01-28T02:11:35.651Z,73421
2017-01-28T02:11:46.154Z,73422
2017-01-28T02:11:56.664Z,73423
2017-01-28T02:12:07.198Z,73422
2017-01-28T02:12:17.356Z,73426
2017-01-28T02:12:27.904Z,73420
2017-01-28T02:12:38.427Z,73422
2017-01-28T02:12:48.939Z,73418
2017-01-28T02:12:59.453Z,73424
2017-01-28T02:13:09.993Z,73419
2017-01-28T02:13:20.535Z,73421
2017-01-28T02:13:31.057Z,73418
2017-01-28T02:13:41.213Z,73420
2017-01-28T02:13:51.730Z,73413